sensor_id;sensor_type;location;lat;lon;timestamp;P1;durP1;ratioP1;P2;durP2;ratioP2
71176;SDS011;58877;51.992;4.504;2023-07-13T00:00:21;7.38;;;4.88;;
71176;SDS011;58877;51.992;4.504;2023-07-13T00:02:52;8.13;;;5.40;;
71176;SDS011;58877;51.992;4.504;2023-07-13T00:05:21;7.32;;;4.82;;
71176;SDS011;58877;51.992;4.504;2023-07-13T00:07:52;7.30;;;4.88;;
71176;SDS011;58877;51.992;4.504;2023-07-13T00:10:18;8.04;;;5.23;;
71176;SDS011;58877;51.992;4.504;2023-07-13T00:12:44;7.86;;;5.09;;
71176;SDS011;58877;51.992;4.504;2023-07-13T00:15:12;6.86;;;4.52;;
71176;SDS011;58877;51.992;4.504;2023-07-13T00:17:41;6.55;;;4.30;;
71176;SDS011;58877;51.992;4.504;2023-07-13T00:20:11;6.59;;;4.35;;
71176;SDS011;58877;51.992;4.504;2023-07-13T00:22:37;6.63;;;4.39;;
71176;SDS011;58877;51.992;4.504;2023-07-13T00:25:03;6.19;;;4.18;;
71176;SDS011;58877;51.992;4.504;2023-07-13T00:27:31;5.39;;;3.59;;
71176;SDS011;58877;51.992;4.504;2023-07-13T00:29:58;6.08;;;4.11;;
71176;SDS011;58877;51.992;4.504;2023-07-13T00:32:24;6.55;;;4.37;;
71176;SDS011;58877;51.992;4.504;2023-07-13T00:34:53;6.29;;;4.18;;
71176;SDS011;58877;51.992;4.504;2023-07-13T00:37:25;6.64;;;4.40;;
71176;SDS011;58877;51.992;4.504;2023-07-13T00:39:54;5.03;;;3.31;;
71176;SDS011;58877;51.992;4.504;2023-07-13T00:42:23;6.06;;;3.98;;
71176;SDS011;58877;51.992;4.504;2023-07-13T00:47:55;5.59;;;3.81;;
71176;SDS011;58877;51.992;4.504;2023-07-13T00:50:22;5.42;;;3.73;;
71176;SDS011;58877;51.992;4.504;2023-07-13T00:52:50;4.62;;;3.21;;
71176;SDS011;58877;51.992;4.504;2023-07-13T00:55:20;5.00;;;3.43;;
71176;SDS011;58877;51.992;4.504;2023-07-13T00:57:55;5.34;;;3.63;;
71176;SDS011;58877;51.992;4.504;2023-07-13T01:00:22;5.50;;;3.74;;
71176;SDS011;58877;51.992;4.504;2023-07-13T01:02:49;4.70;;;3.19;;
71176;SDS011;58877;51.992;4.504;2023-07-13T01:05:21;5.79;;;3.83;;
71176;SDS011;58877;51.992;4.504;2023-07-13T01:07:49;6.07;;;3.85;;
71176;SDS011;58877;51.992;4.504;2023-07-13T01:10:19;7.32;;;4.67;;
71176;SDS011;58877;51.992;4.504;2023-07-13T01:12:53;6.06;;;4.02;;
71176;SDS011;58877;51.992;4.504;2023-07-13T01:15:35;5.13;;;3.56;;
71176;SDS011;58877;51.992;4.504;2023-07-13T01:18:05;4.79;;;3.32;;
71176;SDS011;58877;51.992;4.504;2023-07-13T01:20:38;4.28;;;3.01;;
71176;SDS011;58877;51.992;4.504;2023-07-13T01:23:08;4.49;;;3.08;;
71176;SDS011;58877;51.992;4.504;2023-07-13T01:25:36;3.82;;;2.73;;
71176;SDS011;58877;51.992;4.504;2023-07-13T01:28:04;3.34;;;2.42;;
71176;SDS011;58877;51.992;4.504;2023-07-13T01:30:32;3.74;;;2.66;;
71176;SDS011;58877;51.992;4.504;2023-07-13T01:33:01;3.74;;;2.67;;
71176;SDS011;58877;51.992;4.504;2023-07-13T01:35:27;3.67;;;2.63;;
71176;SDS011;58877;51.992;4.504;2023-07-13T01:37:56;3.67;;;2.62;;
71176;SDS011;58877;51.992;4.504;2023-07-13T01:40:22;3.79;;;2.68;;
71176;SDS011;58877;51.992;4.504;2023-07-13T01:42:48;3.39;;;2.32;;
71176;SDS011;58877;51.992;4.504;2023-07-13T01:45:14;3.46;;;2.33;;
71176;SDS011;58877;51.992;4.504;2023-07-13T01:47:50;2.93;;;2.02;;
71176;SDS011;58877;51.992;4.504;2023-07-13T01:50:24;3.15;;;2.17;;
71176;SDS011;58877;51.992;4.504;2023-07-13T01:52:51;2.94;;;2.03;;
71176;SDS011;58877;51.992;4.504;2023-07-13T01:55:20;2.83;;;1.98;;
71176;SDS011;58877;51.992;4.504;2023-07-13T01:57:51;2.45;;;1.74;;
71176;SDS011;58877;51.992;4.504;2023-07-13T02:00:21;1.94;;;1.43;;
71176;SDS011;58877;51.992;4.504;2023-07-13T02:02:50;2.32;;;1.73;;
71176;SDS011;58877;51.992;4.504;2023-07-13T02:05:17;2.12;;;1.57;;
71176;SDS011;58877;51.992;4.504;2023-07-13T02:07:43;2.34;;;1.73;;
71176;SDS011;58877;51.992;4.504;2023-07-13T02:10:10;2.42;;;1.77;;
71176;SDS011;58877;51.992;4.504;2023-07-13T02:12:39;1.83;;;1.36;;
71176;SDS011;58877;51.992;4.504;2023-07-13T02:15:06;2.33;;;1.77;;
71176;SDS011;58877;51.992;4.504;2023-07-13T02:17:33;2.11;;;1.62;;
71176;SDS011;58877;51.992;4.504;2023-07-13T02:20:00;3.09;;;2.35;;
71176;SDS011;58877;51.992;4.504;2023-07-13T02:22:30;2.57;;;1.95;;
71176;SDS011;58877;51.992;4.504;2023-07-13T02:24:56;2.36;;;1.77;;
71176;SDS011;58877;51.992;4.504;2023-07-13T02:27:23;2.46;;;1.87;;
71176;SDS011;58877;51.992;4.504;2023-07-13T02:29:49;2.77;;;2.12;;
71176;SDS011;58877;51.992;4.504;2023-07-13T02:32:17;2.62;;;2.05;;
71176;SDS011;58877;51.992;4.504;2023-07-13T02:34:43;3.12;;;2.36;;
71176;SDS011;58877;51.992;4.504;2023-07-13T02:37:09;3.74;;;2.72;;
71176;SDS011;58877;51.992;4.504;2023-07-13T02:39:35;3.40;;;2.45;;
71176;SDS011;58877;51.992;4.504;2023-07-13T02:42:01;4.38;;;3.04;;
71176;SDS011;58877;51.992;4.504;2023-07-13T02:44:27;4.36;;;3.05;;
71176;SDS011;58877;51.992;4.504;2023-07-13T02:46:53;3.79;;;2.71;;
71176;SDS011;58877;51.992;4.504;2023-07-13T02:49:19;4.29;;;3.11;;
71176;SDS011;58877;51.992;4.504;2023-07-13T02:51:44;4.08;;;2.96;;
71176;SDS011;58877;51.992;4.504;2023-07-13T02:54:10;3.76;;;2.80;;
71176;SDS011;58877;51.992;4.504;2023-07-13T02:56:38;4.27;;;3.11;;
71176;SDS011;58877;51.992;4.504;2023-07-13T02:59:05;4.40;;;3.14;;
71176;SDS011;58877;51.992;4.504;2023-07-13T03:01:35;5.67;;;3.92;;
71176;SDS011;58877;51.992;4.504;2023-07-13T03:04:01;5.41;;;3.70;;
71176;SDS011;58877;51.992;4.504;2023-07-13T03:06:31;5.64;;;3.91;;
71176;SDS011;58877;51.992;4.504;2023-07-13T03:08:58;4.99;;;3.45;;
71176;SDS011;58877;51.992;4.504;2023-07-13T03:11:25;5.78;;;4.08;;
71176;SDS011;58877;51.992;4.504;2023-07-13T03:13:52;5.98;;;4.21;;
71176;SDS011;58877;51.992;4.504;2023-07-13T03:16:18;5.13;;;3.63;;
71176;SDS011;58877;51.992;4.504;2023-07-13T03:18:45;6.37;;;4.41;;
71176;SDS011;58877;51.992;4.504;2023-07-13T03:21:12;6.81;;;4.62;;
71176;SDS011;58877;51.992;4.504;2023-07-13T03:23:40;6.21;;;4.33;;
71176;SDS011;58877;51.992;4.504;2023-07-13T03:26:11;6.18;;;4.27;;
71176;SDS011;58877;51.992;4.504;2023-07-13T03:28:39;7.59;;;5.13;;
71176;SDS011;58877;51.992;4.504;2023-07-13T03:31:11;6.35;;;4.27;;
71176;SDS011;58877;51.992;4.504;2023-07-13T03:33:41;5.87;;;3.97;;
71176;SDS011;58877;51.992;4.504;2023-07-13T03:36:09;5.86;;;3.91;;
71176;SDS011;58877;51.992;4.504;2023-07-13T03:38:48;5.57;;;3.85;;
71176;SDS011;58877;51.992;4.504;2023-07-13T03:41:19;5.22;;;3.56;;
71176;SDS011;58877;51.992;4.504;2023-07-13T03:43:48;5.59;;;3.88;;
71176;SDS011;58877;51.992;4.504;2023-07-13T03:46:15;6.50;;;4.46;;
71176;SDS011;58877;51.992;4.504;2023-07-13T03:48:43;5.40;;;3.77;;
71176;SDS011;58877;51.992;4.504;2023-07-13T03:51:11;5.30;;;3.69;;
71176;SDS011;58877;51.992;4.504;2023-07-13T03:53:43;5.41;;;3.72;;
71176;SDS011;58877;51.992;4.504;2023-07-13T03:56:10;6.16;;;4.20;;
71176;SDS011;58877;51.992;4.504;2023-07-13T03:58:40;6.04;;;4.08;;
71176;SDS011;58877;51.992;4.504;2023-07-13T04:01:09;5.64;;;3.83;;
71176;SDS011;58877;51.992;4.504;2023-07-13T04:03:39;5.58;;;3.77;;
71176;SDS011;58877;51.992;4.504;2023-07-13T04:06:10;5.34;;;3.63;;
71176;SDS011;58877;51.992;4.504;2023-07-13T04:08:55;5.48;;;3.73;;
71176;SDS011;58877;51.992;4.504;2023-07-13T04:11:26;5.29;;;3.68;;
71176;SDS011;58877;51.992;4.504;2023-07-13T04:13:57;4.14;;;2.91;;
71176;SDS011;58877;51.992;4.504;2023-07-13T04:16:23;5.52;;;3.84;;
71176;SDS011;58877;51.992;4.504;2023-07-13T04:18:50;5.10;;;3.52;;
71176;SDS011;58877;51.992;4.504;2023-07-13T04:21:20;5.44;;;3.82;;
71176;SDS011;58877;51.992;4.504;2023-07-13T04:23:47;4.57;;;3.20;;
71176;SDS011;58877;51.992;4.504;2023-07-13T04:26:17;4.84;;;3.42;;
71176;SDS011;58877;51.992;4.504;2023-07-13T04:28:46;5.14;;;3.63;;
71176;SDS011;58877;51.992;4.504;2023-07-13T04:31:16;4.18;;;2.96;;
71176;SDS011;58877;51.992;4.504;2023-07-13T04:33:42;4.63;;;3.35;;
71176;SDS011;58877;51.992;4.504;2023-07-13T04:36:08;4.13;;;3.08;;
71176;SDS011;58877;51.992;4.504;2023-07-13T04:38:37;3.49;;;2.59;;
71176;SDS011;58877;51.992;4.504;2023-07-13T04:41:04;4.13;;;3.12;;
71176;SDS011;58877;51.992;4.504;2023-07-13T04:43:32;4.47;;;3.35;;
71176;SDS011;58877;51.992;4.504;2023-07-13T04:46:06;4.31;;;3.17;;
71176;SDS011;58877;51.992;4.504;2023-07-13T04:48:35;4.00;;;2.93;;
71176;SDS011;58877;51.992;4.504;2023-07-13T04:51:01;3.86;;;2.82;;
71176;SDS011;58877;51.992;4.504;2023-07-13T04:53:27;5.24;;;3.67;;
71176;SDS011;58877;51.992;4.504;2023-07-13T04:55:55;4.46;;;3.17;;
71176;SDS011;58877;51.992;4.504;2023-07-13T04:58:21;4.55;;;3.30;;
71176;SDS011;58877;51.992;4.504;2023-07-13T05:00:48;4.24;;;3.04;;
71176;SDS011;58877;51.992;4.504;2023-07-13T05:03:15;4.08;;;3.00;;
71176;SDS011;58877;51.992;4.504;2023-07-13T05:05:41;3.99;;;2.97;;
71176;SDS011;58877;51.992;4.504;2023-07-13T05:08:07;3.46;;;2.62;;
71176;SDS011;58877;51.992;4.504;2023-07-13T05:10:33;3.36;;;2.59;;
71176;SDS011;58877;51.992;4.504;2023-07-13T05:13:00;3.05;;;2.41;;
71176;SDS011;58877;51.992;4.504;2023-07-13T05:15:26;3.07;;;2.49;;
71176;SDS011;58877;51.992;4.504;2023-07-13T05:17:52;3.10;;;2.56;;
71176;SDS011;58877;51.992;4.504;2023-07-13T05:20:19;2.66;;;2.17;;
71176;SDS011;58877;51.992;4.504;2023-07-13T05:22:45;3.21;;;2.62;;
71176;SDS011;58877;51.992;4.504;2023-07-13T05:25:14;3.75;;;3.04;;
71176;SDS011;58877;51.992;4.504;2023-07-13T05:27:40;2.84;;;2.30;;
71176;SDS011;58877;51.992;4.504;2023-07-13T05:30:05;2.70;;;2.28;;
71176;SDS011;58877;51.992;4.504;2023-07-13T05:32:32;2.57;;;2.24;;
71176;SDS011;58877;51.992;4.504;2023-07-13T05:34:58;2.44;;;2.13;;
71176;SDS011;58877;51.992;4.504;2023-07-13T05:37:24;3.04;;;2.57;;
71176;SDS011;58877;51.992;4.504;2023-07-13T05:39:50;2.96;;;2.51;;
71176;SDS011;58877;51.992;4.504;2023-07-13T05:42:16;2.70;;;2.26;;
71176;SDS011;58877;51.992;4.504;2023-07-13T05:44:42;3.03;;;2.56;;
71176;SDS011;58877;51.992;4.504;2023-07-13T05:47:08;3.06;;;2.57;;
71176;SDS011;58877;51.992;4.504;2023-07-13T05:49:33;2.75;;;2.33;;
71176;SDS011;58877;51.992;4.504;2023-07-13T05:51:59;3.22;;;2.73;;
71176;SDS011;58877;51.992;4.504;2023-07-13T05:54:28;2.38;;;2.06;;
71176;SDS011;58877;51.992;4.504;2023-07-13T05:56:58;2.50;;;2.22;;
71176;SDS011;58877;51.992;4.504;2023-07-13T05:59:27;2.52;;;2.24;;
71176;SDS011;58877;51.992;4.504;2023-07-13T06:01:52;2.97;;;2.57;;
71176;SDS011;58877;51.992;4.504;2023-07-13T06:04:19;3.35;;;2.85;;
71176;SDS011;58877;51.992;4.504;2023-07-13T06:06:45;3.12;;;2.67;;
71176;SDS011;58877;51.992;4.504;2023-07-13T06:09:11;3.14;;;2.74;;
71176;SDS011;58877;51.992;4.504;2023-07-13T06:11:37;3.08;;;2.65;;
71176;SDS011;58877;51.992;4.504;2023-07-13T06:14:02;3.08;;;2.58;;
71176;SDS011;58877;51.992;4.504;2023-07-13T06:16:29;3.11;;;2.57;;
71176;SDS011;58877;51.992;4.504;2023-07-13T06:18:54;3.46;;;2.89;;
71176;SDS011;58877;51.992;4.504;2023-07-13T06:21:21;3.11;;;2.56;;
71176;SDS011;58877;51.992;4.504;2023-07-13T06:23:49;2.77;;;2.30;;
71176;SDS011;58877;51.992;4.504;2023-07-13T06:26:19;2.96;;;2.51;;
71176;SDS011;58877;51.992;4.504;2023-07-13T06:28:49;2.71;;;2.34;;
71176;SDS011;58877;51.992;4.504;2023-07-13T06:31:15;2.79;;;2.44;;
71176;SDS011;58877;51.992;4.504;2023-07-13T06:33:41;2.52;;;2.18;;
71176;SDS011;58877;51.992;4.504;2023-07-13T06:36:09;2.63;;;2.26;;
71176;SDS011;58877;51.992;4.504;2023-07-13T06:38:35;2.56;;;2.17;;
71176;SDS011;58877;51.992;4.504;2023-07-13T06:41:01;2.92;;;2.49;;
71176;SDS011;58877;51.992;4.504;2023-07-13T06:43:27;2.63;;;2.27;;
71176;SDS011;58877;51.992;4.504;2023-07-13T06:45:54;2.69;;;2.35;;
71176;SDS011;58877;51.992;4.504;2023-07-13T06:48:21;2.49;;;2.18;;
71176;SDS011;58877;51.992;4.504;2023-07-13T06:50:48;2.59;;;2.27;;
71176;SDS011;58877;51.992;4.504;2023-07-13T06:53:16;2.35;;;2.13;;
71176;SDS011;58877;51.992;4.504;2023-07-13T06:55:43;2.29;;;2.10;;
71176;SDS011;58877;51.992;4.504;2023-07-13T06:58:10;2.38;;;2.22;;
71176;SDS011;58877;51.992;4.504;2023-07-13T07:00:36;2.32;;;2.17;;
71176;SDS011;58877;51.992;4.504;2023-07-13T07:03:02;2.29;;;2.15;;
71176;SDS011;58877;51.992;4.504;2023-07-13T07:05:28;2.44;;;2.26;;
71176;SDS011;58877;51.992;4.504;2023-07-13T07:07:54;2.18;;;2.02;;
71176;SDS011;58877;51.992;4.504;2023-07-13T07:10:20;2.61;;;2.41;;
71176;SDS011;58877;51.992;4.504;2023-07-13T07:12:50;2.68;;;2.46;;
71176;SDS011;58877;51.992;4.504;2023-07-13T07:15:16;2.91;;;2.65;;
71176;SDS011;58877;51.992;4.504;2023-07-13T07:17:43;2.82;;;2.52;;
71176;SDS011;58877;51.992;4.504;2023-07-13T07:20:09;2.69;;;2.45;;
71176;SDS011;58877;51.992;4.504;2023-07-13T07:22:35;2.98;;;2.73;;
71176;SDS011;58877;51.992;4.504;2023-07-13T07:25:02;3.08;;;2.78;;
71176;SDS011;58877;51.992;4.504;2023-07-13T07:27:28;2.63;;;2.39;;
71176;SDS011;58877;51.992;4.504;2023-07-13T07:29:53;2.34;;;2.13;;
71176;SDS011;58877;51.992;4.504;2023-07-13T07:32:19;2.77;;;2.51;;
71176;SDS011;58877;51.992;4.504;2023-07-13T07:34:45;2.87;;;2.64;;
71176;SDS011;58877;51.992;4.504;2023-07-13T07:37:13;2.70;;;2.49;;
71176;SDS011;58877;51.992;4.504;2023-07-13T07:39:39;2.61;;;2.34;;
71176;SDS011;58877;51.992;4.504;2023-07-13T07:42:06;2.91;;;2.53;;
71176;SDS011;58877;51.992;4.504;2023-07-13T07:44:33;2.92;;;2.58;;
71176;SDS011;58877;51.992;4.504;2023-07-13T07:46:59;3.14;;;2.79;;
71176;SDS011;58877;51.992;4.504;2023-07-13T07:52:10;2.58;;;2.32;;
71176;SDS011;58877;51.992;4.504;2023-07-13T07:55:08;2.75;;;2.54;;
71176;SDS011;58877;51.992;4.504;2023-07-13T07:57:47;2.31;;;2.16;;
71176;SDS011;58877;51.992;4.504;2023-07-13T08:00:19;2.55;;;2.40;;
71176;SDS011;58877;51.992;4.504;2023-07-13T08:02:56;2.69;;;2.58;;
71176;SDS011;58877;51.992;4.504;2023-07-13T08:05:36;2.87;;;2.74;;
71176;SDS011;58877;51.992;4.504;2023-07-13T08:08:30;2.68;;;2.56;;
71176;SDS011;58877;51.992;4.504;2023-07-13T08:11:12;2.78;;;2.62;;
71176;SDS011;58877;51.992;4.504;2023-07-13T08:13:47;3.11;;;2.84;;
71176;SDS011;58877;51.992;4.504;2023-07-13T08:16:23;3.26;;;2.91;;
71176;SDS011;58877;51.992;4.504;2023-07-13T08:19:01;2.29;;;2.07;;
71176;SDS011;58877;51.992;4.504;2023-07-13T08:21:44;2.54;;;2.31;;
71176;SDS011;58877;51.992;4.504;2023-07-13T08:24:13;2.74;;;2.46;;
71176;SDS011;58877;51.992;4.504;2023-07-13T08:26:50;2.65;;;2.40;;
71176;SDS011;58877;51.992;4.504;2023-07-13T08:29:29;2.37;;;2.17;;
71176;SDS011;58877;51.992;4.504;2023-07-13T08:32:16;2.36;;;2.21;;
71176;SDS011;58877;51.992;4.504;2023-07-13T08:34:55;2.25;;;2.11;;
71176;SDS011;58877;51.992;4.504;2023-07-13T08:37:35;2.51;;;2.34;;
71176;SDS011;58877;51.992;4.504;2023-07-13T08:40:02;3.18;;;2.99;;
71176;SDS011;58877;51.992;4.504;2023-07-13T08:43:12;2.75;;;2.55;;
71176;SDS011;58877;51.992;4.504;2023-07-13T08:45:24;3.26;;;2.93;;
71176;SDS011;58877;51.992;4.504;2023-07-13T08:48:03;2.73;;;2.54;;
71176;SDS011;58877;51.992;4.504;2023-07-13T08:50:49;2.22;;;2.19;;
71176;SDS011;58877;51.992;4.504;2023-07-13T08:53:44;2.54;;;2.42;;
71176;SDS011;58877;51.992;4.504;2023-07-13T08:56:19;2.56;;;2.41;;
71176;SDS011;58877;51.992;4.504;2023-07-13T08:58:54;2.51;;;2.37;;
71176;SDS011;58877;51.992;4.504;2023-07-13T09:07:16;2.59;;;2.39;;
71176;SDS011;58877;51.992;4.504;2023-07-13T09:12:44;2.49;;;2.29;;
71176;SDS011;58877;51.992;4.504;2023-07-13T09:21:13;2.28;;;2.14;;
71176;SDS011;58877;51.992;4.504;2023-07-13T09:23:43;2.63;;;2.45;;
71176;SDS011;58877;51.992;4.504;2023-07-13T09:26:14;2.79;;;2.57;;
71176;SDS011;58877;51.992;4.504;2023-07-13T09:28:46;2.37;;;2.15;;
71176;SDS011;58877;51.992;4.504;2023-07-13T09:31:28;2.02;;;1.82;;
71176;SDS011;58877;51.992;4.504;2023-07-13T09:34:00;2.30;;;2.11;;
71176;SDS011;58877;51.992;4.504;2023-07-13T09:36:30;2.06;;;1.91;;
71176;SDS011;58877;51.992;4.504;2023-07-13T09:41:47;2.27;;;2.17;;
71176;SDS011;58877;51.992;4.504;2023-07-13T09:44:17;2.29;;;2.20;;
71176;SDS011;58877;51.992;4.504;2023-07-13T09:46:56;2.42;;;2.32;;
71176;SDS011;58877;51.992;4.504;2023-07-13T09:49:26;2.62;;;2.47;;
71176;SDS011;58877;51.992;4.504;2023-07-13T09:52:12;2.74;;;2.54;;
71176;SDS011;58877;51.992;4.504;2023-07-13T09:54:44;3.27;;;3.08;;
71176;SDS011;58877;51.992;4.504;2023-07-13T09:57:27;3.15;;;2.98;;
71176;SDS011;58877;51.992;4.504;2023-07-13T09:59:56;2.88;;;2.73;;
71176;SDS011;58877;51.992;4.504;2023-07-13T10:05:06;3.22;;;3.08;;
71176;SDS011;58877;51.992;4.504;2023-07-13T10:07:40;2.79;;;2.68;;
71176;SDS011;58877;51.992;4.504;2023-07-13T10:10:15;2.62;;;2.52;;
71176;SDS011;58877;51.992;4.504;2023-07-13T10:12:47;2.81;;;2.73;;
71176;SDS011;58877;51.992;4.504;2023-07-13T10:15:14;2.42;;;2.42;;
71176;SDS011;58877;51.992;4.504;2023-07-13T10:17:43;2.55;;;2.54;;
71176;SDS011;58877;51.992;4.504;2023-07-13T10:20:10;2.60;;;2.53;;
71176;SDS011;58877;51.992;4.504;2023-07-13T10:25:29;3.62;;;3.51;;
71176;SDS011;58877;51.992;4.504;2023-07-13T10:28:01;2.68;;;2.61;;
71176;SDS011;58877;51.992;4.504;2023-07-13T10:30:38;2.37;;;2.31;;
71176;SDS011;58877;51.992;4.504;2023-07-13T10:33:10;2.89;;;2.78;;
71176;SDS011;58877;51.992;4.504;2023-07-13T10:35:38;2.88;;;2.79;;
71176;SDS011;58877;51.992;4.504;2023-07-13T10:38:12;2.81;;;2.65;;
71176;SDS011;58877;51.992;4.504;2023-07-13T10:40:44;2.92;;;2.78;;
71176;SDS011;58877;51.992;4.504;2023-07-13T10:44:15;2.85;;;2.72;;
71176;SDS011;58877;51.992;4.504;2023-07-13T10:46:24;2.70;;;2.52;;
71176;SDS011;58877;51.992;4.504;2023-07-13T10:48:56;2.84;;;2.63;;
71176;SDS011;58877;51.992;4.504;2023-07-13T10:51:26;2.28;;;2.13;;
71176;SDS011;58877;51.992;4.504;2023-07-13T10:54:17;2.43;;;2.30;;
71176;SDS011;58877;51.992;4.504;2023-07-13T10:56:49;2.53;;;2.42;;
71176;SDS011;58877;51.992;4.504;2023-07-13T10:59:32;2.53;;;2.45;;
71176;SDS011;58877;51.992;4.504;2023-07-13T11:02:08;2.78;;;2.70;;
71176;SDS011;58877;51.992;4.504;2023-07-13T11:04:52;2.71;;;2.69;;
71176;SDS011;58877;51.992;4.504;2023-07-13T11:07:22;2.65;;;2.65;;
71176;SDS011;58877;51.992;4.504;2023-07-13T11:09:50;2.36;;;2.33;;
71176;SDS011;58877;51.992;4.504;2023-07-13T11:12:28;2.69;;;2.66;;
71176;SDS011;58877;51.992;4.504;2023-07-13T11:18:23;2.27;;;2.24;;
71176;SDS011;58877;51.992;4.504;2023-07-13T11:20:50;2.52;;;2.48;;
71176;SDS011;58877;51.992;4.504;2023-07-13T11:25:46;2.37;;;2.30;;
71176;SDS011;58877;51.992;4.504;2023-07-13T11:28:21;2.60;;;2.53;;
71176;SDS011;58877;51.992;4.504;2023-07-13T11:33:24;1.99;;;1.93;;
71176;SDS011;58877;51.992;4.504;2023-07-13T11:36:13;2.13;;;2.09;;
71176;SDS011;58877;51.992;4.504;2023-07-13T11:38:42;2.32;;;2.28;;
71176;SDS011;58877;51.992;4.504;2023-07-13T11:41:35;2.34;;;2.33;;
71176;SDS011;58877;51.992;4.504;2023-07-13T11:46:49;2.38;;;2.36;;
71176;SDS011;58877;51.992;4.504;2023-07-13T11:49:18;2.19;;;2.17;;
71176;SDS011;58877;51.992;4.504;2023-07-13T11:51:45;2.23;;;2.19;;
71176;SDS011;58877;51.992;4.504;2023-07-13T11:56:59;1.98;;;1.97;;
71176;SDS011;58877;51.992;4.504;2023-07-13T11:59:31;1.71;;;1.71;;
71176;SDS011;58877;51.992;4.504;2023-07-13T12:02:08;2.07;;;2.06;;
71176;SDS011;58877;51.992;4.504;2023-07-13T12:04:47;1.78;;;1.78;;
71176;SDS011;58877;51.992;4.504;2023-07-13T12:07:17;1.96;;;1.95;;
71176;SDS011;58877;51.992;4.504;2023-07-13T12:09:44;2.46;;;2.44;;
71176;SDS011;58877;51.992;4.504;2023-07-13T12:12:18;2.01;;;1.98;;
71176;SDS011;58877;51.992;4.504;2023-07-13T12:14:46;2.04;;;2.00;;
71176;SDS011;58877;51.992;4.504;2023-07-13T12:17:16;2.05;;;2.00;;
71176;SDS011;58877;51.992;4.504;2023-07-13T12:19:47;2.25;;;2.20;;
71176;SDS011;58877;51.992;4.504;2023-07-13T12:22:16;2.45;;;2.41;;
71176;SDS011;58877;51.992;4.504;2023-07-13T12:24:44;2.19;;;2.13;;
71176;SDS011;58877;51.992;4.504;2023-07-13T12:29:51;2.55;;;2.47;;
71176;SDS011;58877;51.992;4.504;2023-07-13T12:32:23;2.16;;;2.08;;
71176;SDS011;58877;51.992;4.504;2023-07-13T12:34:55;2.25;;;2.16;;
71176;SDS011;58877;51.992;4.504;2023-07-13T12:37:29;2.02;;;1.95;;
71176;SDS011;58877;51.992;4.504;2023-07-13T12:39:59;1.96;;;1.89;;
71176;SDS011;58877;51.992;4.504;2023-07-13T12:44:54;2.07;;;2.02;;
71176;SDS011;58877;51.992;4.504;2023-07-13T12:47:23;1.85;;;1.80;;
71176;SDS011;58877;51.992;4.504;2023-07-13T12:49:56;1.72;;;1.67;;
71176;SDS011;58877;51.992;4.504;2023-07-13T12:52:27;1.95;;;1.89;;
71176;SDS011;58877;51.992;4.504;2023-07-13T12:54:57;1.67;;;1.63;;
71176;SDS011;58877;51.992;4.504;2023-07-13T12:57:29;1.82;;;1.78;;
71176;SDS011;58877;51.992;4.504;2023-07-13T12:59:55;1.60;;;1.57;;
71176;SDS011;58877;51.992;4.504;2023-07-13T13:02:30;1.93;;;1.93;;
71176;SDS011;58877;51.992;4.504;2023-07-13T13:05:00;1.89;;;1.84;;
71176;SDS011;58877;51.992;4.504;2023-07-13T13:07:29;1.94;;;1.88;;
71176;SDS011;58877;51.992;4.504;2023-07-13T13:09:55;1.60;;;1.57;;
71176;SDS011;58877;51.992;4.504;2023-07-13T13:12:21;1.74;;;1.71;;
71176;SDS011;58877;51.992;4.504;2023-07-13T13:14:51;1.91;;;1.85;;
71176;SDS011;58877;51.992;4.504;2023-07-13T13:17:22;1.83;;;1.75;;
71176;SDS011;58877;51.992;4.504;2023-07-13T13:19:56;1.74;;;1.68;;
71176;SDS011;58877;51.992;4.504;2023-07-13T13:22:22;1.91;;;1.85;;
71176;SDS011;58877;51.992;4.504;2023-07-13T13:24:48;1.79;;;1.73;;
71176;SDS011;58877;51.992;4.504;2023-07-13T13:27:18;1.81;;;1.76;;
71176;SDS011;58877;51.992;4.504;2023-07-13T13:29:47;1.42;;;1.37;;
71176;SDS011;58877;51.992;4.504;2023-07-13T13:32:17;1.60;;;1.57;;
71176;SDS011;58877;51.992;4.504;2023-07-13T13:34:44;1.56;;;1.53;;
71176;SDS011;58877;51.992;4.504;2023-07-13T13:37:17;1.75;;;1.73;;
71176;SDS011;58877;51.992;4.504;2023-07-13T13:39:47;1.43;;;1.41;;
71176;SDS011;58877;51.992;4.504;2023-07-13T13:42:15;1.66;;;1.64;;
71176;SDS011;58877;51.992;4.504;2023-07-13T13:44:41;1.41;;;1.37;;
71176;SDS011;58877;51.992;4.504;2023-07-13T13:47:12;1.49;;;1.46;;
71176;SDS011;58877;51.992;4.504;2023-07-13T13:49:54;1.31;;;1.29;;
71176;SDS011;58877;51.992;4.504;2023-07-13T13:52:20;1.54;;;1.51;;
71176;SDS011;58877;51.992;4.504;2023-07-13T13:54:46;2.32;;;2.24;;
71176;SDS011;58877;51.992;4.504;2023-07-13T13:57:12;1.72;;;1.65;;
71176;SDS011;58877;51.992;4.504;2023-07-13T13:59:38;1.66;;;1.60;;
71176;SDS011;58877;51.992;4.504;2023-07-13T14:02:25;1.61;;;1.55;;
71176;SDS011;58877;51.992;4.504;2023-07-13T14:04:54;1.58;;;1.52;;
71176;SDS011;58877;51.992;4.504;2023-07-13T14:07:24;1.39;;;1.32;;
71176;SDS011;58877;51.992;4.504;2023-07-13T14:09:51;1.71;;;1.61;;
71176;SDS011;58877;51.992;4.504;2023-07-13T14:12:27;1.53;;;1.45;;
71176;SDS011;58877;51.992;4.504;2023-07-13T14:14:57;1.42;;;1.34;;
71176;SDS011;58877;51.992;4.504;2023-07-13T14:17:24;1.50;;;1.41;;
71176;SDS011;58877;51.992;4.504;2023-07-13T14:19:52;1.32;;;1.24;;
71176;SDS011;58877;51.992;4.504;2023-07-13T14:22:25;1.55;;;1.47;;
71176;SDS011;58877;51.992;4.504;2023-07-13T14:24:55;1.94;;;1.83;;
71176;SDS011;58877;51.992;4.504;2023-07-13T14:27:22;1.41;;;1.33;;
71176;SDS011;58877;51.992;4.504;2023-07-13T14:29:49;1.55;;;1.47;;
71176;SDS011;58877;51.992;4.504;2023-07-13T14:32:15;1.64;;;1.57;;
71176;SDS011;58877;51.992;4.504;2023-07-13T14:34:41;1.83;;;1.74;;
71176;SDS011;58877;51.992;4.504;2023-07-13T14:37:14;1.56;;;1.47;;
71176;SDS011;58877;51.992;4.504;2023-07-13T14:39:44;1.42;;;1.33;;
71176;SDS011;58877;51.992;4.504;2023-07-13T14:42:14;1.94;;;1.84;;
71176;SDS011;58877;51.992;4.504;2023-07-13T14:44:40;1.53;;;1.45;;
71176;SDS011;58877;51.992;4.504;2023-07-13T14:47:08;1.64;;;1.57;;
71176;SDS011;58877;51.992;4.504;2023-07-13T14:49:38;1.83;;;1.75;;
71176;SDS011;58877;51.992;4.504;2023-07-13T14:52:12;1.36;;;1.29;;
71176;SDS011;58877;51.992;4.504;2023-07-13T14:54:43;1.59;;;1.51;;
71176;SDS011;58877;51.992;4.504;2023-07-13T14:57:12;1.59;;;1.53;;
71176;SDS011;58877;51.992;4.504;2023-07-13T14:59:40;1.74;;;1.67;;
71176;SDS011;58877;51.992;4.504;2023-07-13T15:02:15;1.76;;;1.65;;
71176;SDS011;58877;51.992;4.504;2023-07-13T15:04:47;1.82;;;1.72;;
71176;SDS011;58877;51.992;4.504;2023-07-13T15:07:56;1.86;;;1.75;;
71176;SDS011;58877;51.992;4.504;2023-07-13T15:10:20;1.78;;;1.68;;
71176;SDS011;58877;51.992;4.504;2023-07-13T15:13:00;1.97;;;1.87;;
71176;SDS011;58877;51.992;4.504;2023-07-13T15:15:38;1.77;;;1.69;;
71176;SDS011;58877;51.992;4.504;2023-07-13T15:18:19;1.79;;;1.71;;
71176;SDS011;58877;51.992;4.504;2023-07-13T15:20:48;1.84;;;1.76;;
71176;SDS011;58877;51.992;4.504;2023-07-13T15:23:18;1.65;;;1.58;;
71176;SDS011;58877;51.992;4.504;2023-07-13T15:25:49;1.67;;;1.58;;
71176;SDS011;58877;51.992;4.504;2023-07-13T15:28:24;1.46;;;1.39;;
71176;SDS011;58877;51.992;4.504;2023-07-13T15:30:53;1.93;;;1.84;;
71176;SDS011;58877;51.992;4.504;2023-07-13T15:34:20;2.00;;;1.88;;
71176;SDS011;58877;51.992;4.504;2023-07-13T15:37:02;1.94;;;1.81;;
71176;SDS011;58877;51.992;4.504;2023-07-13T15:39:51;1.94;;;1.83;;
71176;SDS011;58877;51.992;4.504;2023-07-13T15:42:28;1.73;;;1.65;;
71176;SDS011;58877;51.992;4.504;2023-07-13T15:45:02;1.66;;;1.59;;
71176;SDS011;58877;51.992;4.504;2023-07-13T15:50:23;1.89;;;1.82;;
71176;SDS011;58877;51.992;4.504;2023-07-13T15:55:57;1.78;;;1.70;;
71176;SDS011;58877;51.992;4.504;2023-07-13T16:01:52;1.80;;;1.71;;
71176;SDS011;58877;51.992;4.504;2023-07-13T16:04:27;1.61;;;1.53;;